createdAt,value
2022-08-23T00:01:24.252Z,16.13
2022-08-23T00:03:55.804Z,16.87
2022-08-23T00:06:24.549Z,18.80
2022-08-23T00:08:53.738Z,16.27
2022-08-23T00:11:32.840Z,15.70
2022-08-23T00:14:03.036Z,19.67
2022-08-23T00:16:31.264Z,17.93
2022-08-23T00:19:00.850Z,17.67
2022-08-23T00:21:29.401Z,17.63
2022-08-23T00:23:59.531Z,16.70
2022-08-23T00:26:27.723Z,18.13
2022-08-23T00:28:55.800Z,21.90
2022-08-23T00:31:23.889Z,21.80
2022-08-23T00:33:52.135Z,17.80
2022-08-23T00:36:21.601Z,16.10
2022-08-23T00:38:49.944Z,24.93
2022-08-23T00:41:18.163Z,16.53
2022-08-23T00:44:03.817Z,17.73
2022-08-23T00:47:00.838Z,15.10
2022-08-23T00:49:31.106Z,18.70
2022-08-23T00:52:07.234Z,13.90
2022-08-23T00:54:37.543Z,18.97
2022-08-23T00:57:09.037Z,19.93
2022-08-23T00:59:37.307Z,16.93
2022-08-23T01:02:09.916Z,15.80
2022-08-23T01:04:44.953Z,24.37
2022-08-23T01:07:20.399Z,23.40
2022-08-23T01:09:51.875Z,21.73
2022-08-23T01:12:32.946Z,18.20
2022-08-23T01:15:05.231Z,16.50
2022-08-23T01:17:40.284Z,18.30
2022-08-23T01:20:12.054Z,17.17
2022-08-23T01:22:50.897Z,17.97
2022-08-23T01:25:24.014Z,21.23
2022-08-23T01:27:52.329Z,27.53
2022-08-23T01:30:24.503Z,23.90
2022-08-23T01:33:00.071Z,22.53
2022-08-23T01:35:35.786Z,25.40
2022-08-23T01:38:04.169Z,24.20
2022-08-23T01:40:34.539Z,24.17
2022-08-23T01:43:03.250Z,23.50
2022-08-23T01:45:34.586Z,22.50
2022-08-23T01:48:04.658Z,19.27
2022-08-23T01:50:33.526Z,18.33
2022-08-23T01:53:02.761Z,20.33
2022-08-23T01:55:31.058Z,17.37
2022-08-23T01:58:03.912Z,19.20
2022-08-23T02:00:35.721Z,18.20
2022-08-23T02:03:04.148Z,15.10
2022-08-23T02:05:32.881Z,18.33
2022-08-23T02:08:21.324Z,19.00
2022-08-23T02:10:49.502Z,19.17
2022-08-23T02:13:20.280Z,15.77
2022-08-23T02:15:51.548Z,17.60
2022-08-23T02:18:24.375Z,17.73
2022-08-23T02:20:53.950Z,17.40
2022-08-23T02:23:23.320Z,15.53
2022-08-23T02:25:51.945Z,17.70
2022-08-23T02:28:22.116Z,17.50
2022-08-23T02:30:51.140Z,16.07
2022-08-23T02:33:21.051Z,17.80
2022-08-23T02:35:50.108Z,15.97
2022-08-23T02:38:18.605Z,18.17
2022-08-23T02:40:46.709Z,17.37
2022-08-23T02:43:22.332Z,17.03
2022-08-23T02:45:52.829Z,14.27
2022-08-23T02:48:22.540Z,11.17
2022-08-23T02:50:51.065Z,12.40
2022-08-23T02:53:19.372Z,10.47
2022-08-23T02:55:48.155Z,13.00
2022-08-23T02:58:16.247Z,9.37
2022-08-23T03:00:49.539Z,10.30
2022-08-23T03:03:18.640Z,10.67
2022-08-23T03:05:50.765Z,7.90
2022-08-23T03:08:20.620Z,7.67
2022-08-23T03:10:50.755Z,8.93
2022-08-23T03:13:19.308Z,6.93
2022-08-23T03:15:48.824Z,8.37
2022-08-23T03:18:17.520Z,8.33
2022-08-23T03:20:46.707Z,13.03
2022-08-23T03:23:14.862Z,6.57
2022-08-23T03:25:43.049Z,8.33
2022-08-23T03:28:11.918Z,6.53
2022-08-23T03:30:40.277Z,10.27
2022-08-23T03:33:09.862Z,6.43
2022-08-23T03:35:37.920Z,7.13
2022-08-23T03:38:06.168Z,7.33
2022-08-23T03:40:34.808Z,6.30
2022-08-23T03:43:03.220Z,7.33
2022-08-23T03:45:32.688Z,8.13
2022-08-23T03:48:02.391Z,8.20
2022-08-23T03:50:32.113Z,10.40
2022-08-23T03:53:00.241Z,9.97
2022-08-23T03:55:28.519Z,10.07
2022-08-23T03:57:56.650Z,12.63
2022-08-23T04:00:25.056Z,13.40
2022-08-23T04:02:53.773Z,15.47
2022-08-23T04:05:22.288Z,10.73
2022-08-23T04:07:52.329Z,8.97
2022-08-23T04:10:21.071Z,9.40
2022-08-23T04:12:50.103Z,11.17
2022-08-23T04:15:20.542Z,9.03
2022-08-23T04:17:48.933Z,9.50
2022-08-23T04:20:18.672Z,8.93
2022-08-23T04:22:47.867Z,11.53
2022-08-23T04:25:33.444Z,11.23
2022-08-23T04:28:03.978Z,13.30
2022-08-23T04:30:32.745Z,14.03
2022-08-23T04:33:01.514Z,13.90
2022-08-23T04:35:29.970Z,14.90
2022-08-23T04:37:58.162Z,15.33
2022-08-23T04:40:45.365Z,13.27
2022-08-23T04:43:13.542Z,15.60
2022-08-23T04:45:42.371Z,18.97
2022-08-23T04:48:12.168Z,15.27
2022-08-23T04:50:40.836Z,19.67
2022-08-23T04:53:09.552Z,16.97
2022-08-23T04:55:39.256Z,16.57
2022-08-23T04:58:08.349Z,19.00
2022-08-23T05:00:37.101Z,17.00
2022-08-23T05:03:05.301Z,17.50
2022-08-23T05:05:33.548Z,29.07
2022-08-23T05:08:01.841Z,18.57
2022-08-23T05:10:30.149Z,21.83
2022-08-23T05:12:59.680Z,20.43
2022-08-23T05:15:27.883Z,23.07
2022-08-23T05:17:56.049Z,21.33
2022-08-23T05:20:24.619Z,21.20
2022-08-23T05:22:52.744Z,22.77
2022-08-23T05:25:21.324Z,23.13
2022-08-23T05:27:49.549Z,26.07
2022-08-23T05:30:19.241Z,23.37
2022-08-23T05:32:47.806Z,26.13
2022-08-23T05:35:16.437Z,21.30
2022-08-23T05:37:47.413Z,24.07
2022-08-23T05:40:15.649Z,22.67
2022-08-23T05:42:43.834Z,22.23
2022-08-23T05:45:12.048Z,23.37
2022-08-23T05:47:42.190Z,17.17
2022-08-23T05:50:11.430Z,15.00
2022-08-23T05:52:39.615Z,17.37
2022-08-23T05:55:09.672Z,18.73
2022-08-23T05:57:38.832Z,22.37
2022-08-23T06:00:10.580Z,17.83
2022-08-23T06:02:38.947Z,18.00
2022-08-23T06:05:09.669Z,24.20
2022-08-23T06:07:38.469Z,21.50
2022-08-23T06:10:08.012Z,17.17
2022-08-23T06:12:44.530Z,17.33
2022-08-23T06:15:13.155Z,16.43
2022-08-23T06:17:41.344Z,17.03
2022-08-23T06:20:12.066Z,16.93
2022-08-23T06:22:40.189Z,19.40
2022-08-23T06:25:09.752Z,16.87
2022-08-23T06:27:38.328Z,14.13
2022-08-23T06:30:08.367Z,15.87
2022-08-23T06:32:41.515Z,15.83
2022-08-23T06:35:37.643Z,15.47
2022-08-23T06:37:59.951Z,13.17
2022-08-23T06:40:29.174Z,17.40
2022-08-23T06:42:59.043Z,18.50
2022-08-23T06:45:33.765Z,14.60
2022-08-23T06:48:03.776Z,16.33
2022-08-23T06:50:33.311Z,17.27
2022-08-23T06:53:01.474Z,14.93
2022-08-23T06:55:35.382Z,15.50
2022-08-23T06:58:03.456Z,20.03
2022-08-23T07:00:31.679Z,16.40
2022-08-23T07:03:00.262Z,19.17
2022-08-23T07:05:28.960Z,17.47
2022-08-23T07:07:58.599Z,18.53
2022-08-23T07:10:26.763Z,14.87
2022-08-23T07:12:55.408Z,18.07
2022-08-23T07:15:24.170Z,17.97
2022-08-23T07:17:52.378Z,18.17
2022-08-23T07:20:20.693Z,17.73
2022-08-23T07:22:49.415Z,16.20
2022-08-23T07:32:54.918Z,18.57
